Latest Weather Observations for Horn Island

IDQ60801

Issued at 11:32 am EST Friday 12 February 2016 (issued every 30 minutes, with the page automatically refreshed every 10 minutes)

About weather observations | Map of weather stations | Latest weather observations for QLD | Other Formats
Station Details ID: 027058 Name: HORN ISLAND Lat: -10.58 Lon: 142.29 Height: 4.0 m
Data from the previous 72 hours. | See also: Recent months at Horn Island
Date/Time
EST
Temp
°C
App
Temp
°C
Dew
Point
Rel
Hum
%
Delta-T
°C
Wind Press
QNH
hPa
Press
MSL
hPa
Rain
since 9 am
mm
Dir
 
Spd
km/h
Gust
km/h
Spd
kts
Gust
kts
12/11:30am 27.4 31.1 27.2 99 0.1 WNW 22 41 12 22 1008.5 - 1.2
12/11:29am 27.3 30.6 27.1 99 0.1 WNW 24 41 13 22 1008.5 - 1.2
12/11:08am 27.9 32.6 27.7 99 0.1 WNW 19 26 10 14 1008.4 - 0.8
12/11:00am 27.6 31.8 27.4 99 0.1 WNW 20 28 11 15 1008.6 - 0.8
12/10:54am 27.6 31.5 27.4 99 0.1 WNW 22 32 12 17 1008.6 - 0.8
12/10:37am 27.3 31.3 27.1 99 0.1 WNW 20 37 11 20 1009.0 - 0.8
12/10:30am 28.0 33.1 27.8 99 0.1 NW 17 28 9 15 1009.1 - 0.0
12/10:22am 27.9 33.1 27.9 100 0.0 NW 17 26 9 14 1009.3 - 0.0
12/10:19am 27.9 33.5 27.9 100 0.0 NW 15 22 8 12 1009.3 - 0.0
12/10:01am 27.6 32.0 27.6 100 0.0 WNW 20 30 11 16 1009.3 - 0.0
12/10:00am 27.6 32.0 27.6 100 0.0 WNW 20 30 11 16 1009.3 - 0.0
12/09:56am 27.5 32.4 27.5 100 0.0 WNW 17 30 9 16 1009.3 - 0.0
12/09:43am 27.5 32.8 27.5 100 0.0 WNW 15 24 8 13 1009.4 - 0.0
12/09:39am 27.4 32.2 27.4 100 0.0 NW 17 24 9 13 1009.4 - 0.0
12/09:30am 27.1 31.7 27.1 100 0.0 NW 17 24 9 13 1009.5 - 0.0
12/09:20am 27.0 31.9 27.0 100 0.0 NW 15 22 8 12 1009.4 - 0.0
12/09:00am 26.8 30.6 26.8 100 0.0 NNW 20 28 11 15 1009.4 1009.4 79.0
12/08:36am 26.9 31.0 26.9 100 0.0 NW 19 30 10 16 1009.2 - 78.8
12/08:30am 26.6 30.3 26.6 100 0.0 NNW 20 30 11 16 1009.2 - 78.8
12/08:29am 26.6 30.3 26.6 100 0.0 NNW 20 30 11 16 1009.2 - 78.8
12/08:00am 26.1 29.7 26.1 100 0.0 NW 19 33 10 18 1008.9 - 71.8
12/07:32am 26.7 30.7 26.7 100 0.0 NNW 19 30 10 16 1008.4 - 62.4
12/07:30am 26.6 30.9 26.6 100 0.0 NW 17 30 9 16 1008.3 - 62.2
12/07:26am 26.1 30.0 26.1 100 0.0 NW 17 24 9 13 1008.4 - 62.0
12/07:02am 25.9 29.1 25.9 100 0.0 WNW 20 37 11 20 1008.2 - 60.2
12/07:00am 25.9 29.1 25.9 100 0.0 WNW 20 37 11 20 1008.2 - 59.4
12/06:57am 26.0 29.3 26.0 100 0.0 WNW 20 32 11 17 1008.1 - 57.6
12/06:43am 27.6 32.0 27.6 100 0.0 NNW 20 30 11 16 1007.7 - 56.2
12/06:30am 27.1 31.3 27.1 100 0.0 NNW 19 26 10 14 1007.7 - 56.2
12/06:29am 27.2 31.5 27.2 100 0.0 NNW 19 26 10 14 1007.8 - 56.2
12/06:22am 27.3 31.7 27.3 100 0.0 NNW 19 28 10 15 1007.6 - 56.2
12/06:05am 27.1 31.1 27.1 100 0.0 NNW 20 32 11 17 1007.4 - 56.0
12/06:00am 27.1 31.7 27.1 100 0.0 NNW 17 30 9 16 1007.3 1007.3 55.2
12/05:59am 27.1 32.1 27.1 100 0.0 NNW 15 26 8 14 1007.3 - 55.2
12/05:53am 26.5 32.8 26.5 100 0.0 NW 6 13 3 7 1007.2 - 55.2
12/05:31am 25.8 31.4 25.8 100 0.0 W 7 13 4 7 1007.2 - 54.2
12/05:30am 25.8 31.6 25.8 100 0.0 W 6 11 3 6 1007.2 - 53.6
12/05:00am 25.5 30.6 25.5 100 0.0 NNW 9 17 5 9 1006.9 - 48.2
12/04:53am 25.4 29.3 25.4 100 0.0 NNE 15 20 8 11 1007.0 - 44.4
12/04:52am 25.3 29.1 25.3 100 0.0 NNE 15 20 8 11 1007.0 - 43.8
12/04:48am 25.4 28.5 25.4 100 0.0 NNE 19 30 10 16 1006.8 - 43.8
12/04:30am 25.9 29.1 25.9 100 0.0 N 20 30 11 16 1006.8 - 43.6
12/04:10am 26.2 31.7 26.2 100 0.0 E 9 13 5 7 1006.8 - 38.4
12/04:03am 26.1 31.9 26.1 100 0.0 ENE 7 11 4 6 1006.8 - 36.8
12/04:00am 26.0 31.8 26.0 100 0.0 N 7 13 4 7 1006.8 - 36.8
12/03:54am 25.9 31.2 25.9 100 0.0 SSW 9 19 5 10 1006.7 - 36.8
12/03:50am 25.7 30.1 25.7 100 0.0 S 13 20 7 11 1006.5 - 36.8
12/03:39am 25.9 30.1 25.9 100 0.0 SW 15 24 8 13 1006.6 - 34.4
12/03:30am 25.7 28.7 25.5 99 0.1 WSW 20 24 11 13 1006.9 - 28.8
12/03:00am 26.8 32.7 26.8 100 0.0 S 9 11 5 6 1006.7 1006.7 21.6
12/02:34am 27.1 33.1 26.9 99 0.1 N 9 13 5 7 1007.1 - 16.8
12/02:30am 27.2 32.9 27.0 99 0.1 N 11 13 6 7 1007.2 - 16.2
12/02:22am 27.3 33.4 27.1 99 0.1 N 9 13 5 7 1007.2 - 12.6
12/02:14am 27.4 33.6 27.2 99 0.1 N 9 11 5 6 1007.2 - 11.6
12/02:00am 27.4 33.6 27.2 99 0.1 N 9 13 5 7 1007.4 - 11.6
12/01:45am 27.3 33.0 27.1 99 0.1 NNW 11 13 6 7 1007.4 - 11.4
12/01:30am 27.2 32.5 27.0 99 0.1 NNW 13 17 7 9 1007.4 - 11.4
12/01:27am 27.2 32.9 27.0 99 0.1 NNW 11 17 6 9 1007.5 - 11.4
12/01:00am 26.9 33.1 26.7 99 0.1 NNW 7 11 4 6 1007.6 - 11.4
12/12:30am 26.7 34.1 26.5 99 0.1 CALM 0 0 0 0 1007.9 - 11.4
12/12:00am 26.7 34.1 26.5 99 0.1 CALM 0 0 0 0 1008.2 1008.2 11.4
 
Date/Time
EST
Temp
°C
App
Temp
°C
Dew
Point
Rel
Hum
%
Delta-T
°C
Wind Press
QNH
hPa
Press
MSL
hPa
Rain
since 9 am
mm
Dir
 
Spd
km/h
Gust
km/h
Spd
kts
Gust
kts
11/11:30pm 26.3 33.5 26.1 99 0.1 CALM 0 0 0 0 1008.4 - 11.4
11/11:00pm 26.4 32.3 26.2 99 0.1 SSE 7 9 4 5 1008.6 - 11.4
11/10:30pm 26.4 33.6 26.1 98 0.2 CALM 0 7 0 4 1008.7 - 11.4
11/10:00pm 26.2 31.8 25.7 97 0.4 E 7 11 4 6 1008.6 - 11.4
11/09:30pm 25.9 30.8 25.2 96 0.5 NE 9 13 5 7 1008.5 - 11.4
11/09:00pm 25.8 30.9 24.9 95 0.6 S 7 9 4 5 1008.3 1008.3 11.0
11/08:30pm 26.0 31.7 25.0 94 0.7 WSW 4 6 2 3 1008.2 - 9.8
11/08:28pm 25.9 31.4 24.7 93 0.8 WSW 4 6 2 3 1008.1 - 9.6
11/08:07pm 25.8 30.2 24.4 92 1.0 SW 9 13 5 7 1007.9 - 8.8
11/08:00pm 25.8 30.2 24.4 92 1.0 SSW 9 13 5 7 1007.8 - 8.4
11/07:58pm 25.8 30.2 24.4 92 1.0 SSW 9 13 5 7 1007.8 - 8.2
11/07:41pm 25.6 28.1 23.8 90 1.2 W 17 28 9 15 1007.6 - 7.6
11/07:40pm 25.6 28.1 23.8 90 1.2 W 17 28 9 15 1007.6 - 7.6
11/07:30pm 26.3 29.2 24.5 90 1.2 WSW 17 26 9 14 1007.6 - 6.8
11/07:27pm 26.2 29.4 24.4 90 1.2 WSW 15 20 8 11 1007.5 - 6.4
11/07:25pm 26.2 29.3 24.2 89 1.4 WSW 15 20 8 11 1007.5 - 6.4
11/07:22pm 26.2 29.3 24.2 89 1.4 WSW 15 22 8 12 1007.4 - 6.4
11/07:01pm 27.0 31.2 24.8 88 1.5 SE 11 24 6 13 1007.1 - 4.4
11/07:00pm 27.2 31.9 25.0 88 1.5 ESE 9 24 5 13 1007.1 - 3.6
11/06:30pm 27.4 32.0 24.7 85 1.9 SSE 9 11 5 6 1006.4 - 1.8
11/06:06pm 27.5 31.8 24.3 83 2.2 WSW 9 13 5 7 1006.0 - 1.8
11/06:00pm 27.8 31.8 24.4 82 2.4 SW 11 13 6 7 1005.9 1005.9 1.8
11/05:42pm 27.7 30.3 23.3 77 3.0 WNW 15 26 8 14 1005.7 - 1.4
11/05:30pm 29.7 33.7 25.0 76 3.3 NW 13 19 7 10 1005.3 - 0.0
11/05:00pm 30.5 34.5 25.1 73 3.8 WNW 13 20 7 11 1004.8 - 0.0
11/04:30pm 30.5 34.5 25.1 73 3.8 W 13 19 7 10 1004.4 - 0.0
11/04:00pm 31.2 34.7 26.0 74 3.7 W 19 26 10 14 1004.1 - 0.0
11/03:30pm 31.4 35.4 26.2 74 3.7 W 17 26 9 14 1004.4 - 0.0
11/03:00pm 31.6 35.5 26.6 75 3.6 W 19 28 10 15 1004.7 1004.7 0.0
11/02:30pm 31.2 35.2 26.7 77 3.2 W 19 30 10 16 1005.1 - 0.0
11/02:00pm 30.9 35.1 27.0 80 2.8 W 19 28 10 15 1005.4 - 0.0
11/01:30pm 30.4 35.5 27.2 83 2.3 NNW 15 22 8 12 1005.6 - 0.0
11/01:00pm 29.9 34.3 27.3 86 1.9 WNW 19 28 10 15 1006.5 - 0.0
11/12:30pm 29.2 34.1 27.0 88 1.6 NW 15 20 8 11 1007.0 - 0.0
11/12:00pm 30.2 35.0 27.4 85 2.0 WNW 17 28 9 15 1007.1 1007.1 0.0
11/11:30am 30.1 35.1 27.7 87 1.7 W 17 24 9 13 1007.6 - 0.0
11/11:00am 29.4 35.3 27.8 91 1.2 W 13 22 7 12 1008.0 - 0.0
11/10:30am 28.4 33.9 27.3 94 0.8 WNW 13 20 7 11 1008.4 - 0.0
11/10:00am 27.8 33.9 27.1 96 0.5 W 9 11 5 6 1008.6 - 0.0
11/09:30am 27.1 32.9 26.6 97 0.4 W 9 15 5 8 1009.0 - 0.0
11/09:00am 27.0 33.1 26.5 97 0.4 SW 7 13 4 7 1008.7 1008.7 45.2
11/08:30am 26.5 30.6 26.3 99 0.1 WSW 17 20 9 11 1008.5 - 45.2
11/08:00am 26.4 30.4 26.2 99 0.1 WSW 17 26 9 14 1008.4 - 45.2
11/07:30am 26.8 32.7 26.8 100 0.0 W 9 15 5 8 1007.8 - 45.2
11/07:00am 26.1 31.6 26.1 100 0.0 W 9 15 5 8 1007.6 - 44.6
11/06:30am 25.5 31.1 25.5 100 0.0 ESE 6 7 3 4 1007.2 - 44.6
11/06:00am 25.2 30.3 25.0 99 0.1 ESE 7 11 4 6 1006.9 1006.9 44.6
11/05:40am 24.8 28.9 24.6 99 0.1 ENE 11 15 6 8 1006.9 - 44.6
11/05:30am 25.2 29.7 25.2 100 0.0 NE 11 15 6 8 1007.0 - 44.6
11/05:00am 25.6 30.2 25.4 99 0.1 NNW 11 15 6 8 1006.4 - 29.0
11/04:53am 26.1 31.9 26.1 100 0.0 N 7 13 4 7 1006.3 - 23.8
11/04:30am 25.4 32.0 25.2 99 0.1 CALM 0 0 0 0 1006.1 - 23.2
11/04:00am 25.3 30.7 25.1 99 0.1 SE 6 7 3 4 1005.9 - 23.2
11/03:30am 25.4 30.8 25.2 99 0.1 SSE 6 9 3 5 1005.8 - 23.2
11/03:00am 25.3 31.8 25.1 99 0.1 CALM 0 4 0 2 1006.1 1006.1 23.2
11/02:30am 25.4 30.8 25.2 99 0.1 SSE 6 9 3 5 1006.3 - 23.2
11/02:00am 25.2 30.5 24.9 98 0.2 SSE 6 11 3 6 1006.4 - 23.2
11/01:39am 25.3 30.0 25.0 98 0.2 S 9 11 5 6 1006.7 - 23.2
11/01:30am 25.2 29.0 24.7 97 0.3 S 13 15 7 8 1006.7 - 23.2
11/01:00am 25.3 28.3 24.6 96 0.5 SSW 17 20 9 11 1007.1 - 15.6
11/12:32am 26.1 28.8 25.1 94 0.7 N 20 30 11 16 1007.3 - 9.8
11/12:30am 26.1 28.8 25.1 94 0.7 N 20 30 11 16 1007.3 - 9.2
11/12:00am 27.0 34.3 26.3 96 0.5 CALM 0 0 0 0 1007.5 1007.5 9.0
 
Date/Time
EST
Temp
°C
App
Temp
°C
Dew
Point
Rel
Hum
%
Delta-T
°C
Wind Press
QNH
hPa
Press
MSL
hPa
Rain
since 9 am
mm
Dir
 
Spd
km/h
Gust
km/h
Spd
kts
Gust
kts
10/11:30pm 27.2 34.6 26.5 96 0.5 CALM 0 0 0 0 1007.9 - 9.0
10/11:00pm 27.4 34.8 26.5 95 0.6 CALM 0 0 0 0 1008.3 - 9.0
10/10:30pm 27.3 33.8 26.2 94 0.8 SE 4 7 2 4 1008.5 - 9.0
10/10:00pm 27.5 34.8 26.3 93 0.9 CALM 0 0 0 0 1008.3 - 9.0
10/09:30pm 27.4 34.6 26.2 93 0.9 CALM 0 0 0 0 1008.0 - 9.0
10/09:00pm 27.5 33.8 25.9 91 1.1 WNW 4 7 2 4 1007.5 1007.5 9.0
10/08:30pm 27.6 34.7 26.0 91 1.1 CALM 0 0 0 0 1007.1 - 9.0
10/08:00pm 27.6 34.6 25.8 90 1.3 CALM 0 0 0 0 1007.0 - 9.0
10/07:30pm 27.7 34.6 25.7 89 1.4 CALM 0 0 0 0 1006.6 - 9.0
10/07:00pm 28.3 34.3 26.1 88 1.6 W 6 7 3 4 1006.4 - 9.0
10/06:30pm 29.0 36.6 26.8 88 1.6 CALM 0 0 0 0 1006.0 - 9.0
10/06:00pm 27.9 34.2 25.9 89 1.4 S 4 7 2 4 1005.8 1005.8 9.0
10/05:40pm 27.2 31.9 25.0 88 1.5 WSW 9 11 5 6 1005.9 - 9.0
10/05:30pm 27.1 31.3 24.7 87 1.7 WSW 11 20 6 11 1005.8 - 9.0
10/05:19pm 27.2 30.5 24.5 85 1.9 W 15 24 8 13 1005.8 - 8.2
10/05:00pm 28.8 34.5 25.6 83 2.3 N 6 7 3 4 1005.6 - 7.2
10/04:30pm 28.7 33.3 25.9 85 2.0 N 13 19 7 10 1005.5 - 7.2
10/04:00pm 29.1 34.2 26.1 84 2.1 NW 11 22 6 12 1005.3 - 6.8
10/03:30pm 29.1 34.7 26.3 85 2.0 NNW 9 15 5 8 1005.5 - 6.8
10/03:00pm 29.3 35.0 27.1 88 1.6 NNW 11 19 6 10 1005.6 1005.6 6.8
10/02:30pm 28.7 35.1 26.9 90 1.3 NW 7 11 4 6 1006.1 - 6.6
10/02:16pm 27.9 33.9 26.3 91 1.1 WNW 7 11 4 6 1006.2 - 6.6
10/02:03pm 27.6 34.7 26.0 91 1.1 CALM 0 6 0 3 1006.3 - 6.6
10/02:00pm 27.7 34.5 26.1 91 1.1 SW 2 7 1 4 1006.4 - 6.6
10/01:30pm 26.9 32.3 25.1 90 1.3 SW 6 9 3 5 1006.7 - 6.6
10/01:00pm 26.5 31.3 24.5 89 1.4 W 7 11 4 6 1007.1 - 6.6
10/12:30pm 26.1 30.5 23.8 87 1.6 W 7 7 4 4 1007.8 - 6.6
10/12:00pm 26.5 29.2 23.4 83 2.1 W 15 32 8 17 1008.6 1008.6 4.8
10/11:54am 26.7 28.3 23.2 81 2.4 W 20 32 11 17 1008.7 - 2.6
10/11:30am 28.7 32.0 25.1 81 2.5 N 17 30 9 16 1008.3 - 0.0
10/11:00am 29.1 33.9 25.7 82 2.4 NNW 11 17 6 9 1008.6 - 0.0
10/10:49am 29.0 34.6 25.8 83 2.3 W 7 13 4 7 1008.7 - 0.0
10/10:30am 29.0 34.3 25.8 83 2.3 W 9 17 5 9 1008.8 - 0.0
10/10:18am 29.0 34.3 25.8 83 2.3 W 9 17 5 9 1008.8 - 0.0
10/10:00am 28.9 33.0 25.7 83 2.3 NW 15 19 8 10 1008.9 - 0.0
10/09:30am 29.0 33.2 26.0 84 2.1 NW 15 20 8 11 1008.8 - 0.0
10/09:00am 29.0 34.0 26.6 87 1.7 WNW 13 20 7 11 1008.8 1008.8 0.0
10/08:30am 28.0 34.0 26.0 89 1.4 W 6 11 3 6 1008.6 - 0.0
10/08:00am 27.6 32.9 25.8 90 1.3 WNW 9 13 5 7 1008.3 - 0.0
10/07:30am 27.4 32.0 25.4 89 1.4 WNW 11 19 6 10 1007.8 - 0.0
10/07:00am 27.5 31.4 25.5 89 1.4 NW 15 20 8 11 1007.4 - 0.0
10/06:30am 27.2 30.9 25.2 89 1.4 NW 15 20 8 11 1006.8 - 0.0
10/06:00am 27.4 31.5 25.2 88 1.5 NW 13 22 7 12 1006.5 1006.5 0.0
10/05:30am 28.0 32.4 25.6 87 1.7 NNW 13 19 7 10 1006.5 - 0.0
10/05:00am 28.1 33.2 25.5 86 1.8 WNW 9 15 5 8 1006.2 - 0.0
10/04:30am 28.1 33.2 25.5 86 1.8 NW 9 15 5 8 1005.9 - 0.0
10/04:00am 27.9 33.3 25.5 87 1.7 WNW 7 11 4 6 1006.1 - 0.0
10/03:30am 27.7 32.6 25.3 87 1.7 WNW 9 11 5 6 1006.2 - 0.0
10/03:00am 27.7 32.9 25.7 89 1.4 WNW 9 13 5 7 1006.3 1006.3 0.0
10/02:30am 27.6 33.1 25.6 89 1.4 WNW 7 11 4 6 1006.9 - 0.0
10/02:00am 27.5 32.4 25.3 88 1.5 WNW 9 11 5 6 1007.0 - 0.0
10/01:30am 27.6 34.3 25.4 88 1.5 CALM 0 0 0 0 1007.4 - 0.0
10/01:00am 27.6 34.2 25.2 87 1.7 CALM 0 0 0 0 1007.6 - 0.0
10/12:30am 27.6 32.9 25.0 86 1.8 WSW 6 7 3 4 1007.9 - 0.0
10/12:00am 27.9 34.4 25.1 85 2.0 CALM 0 0 0 0 1008.4 1008.4 0.0
 
Date/Time
EST
Temp
°C
App
Temp
°C
Dew
Point
Rel
Hum
%
Delta-T
°C
Wind Press
QNH
hPa
Press
MSL
hPa
Rain
since 9 am
mm
Dir
 
Spd
km/h
Gust
km/h
Spd
kts
Gust
kts
09/11:30pm 28.2 34.8 25.2 84 2.1 CALM 0 0 0 0 1008.9 - 0.0
09/11:00pm 28.2 34.7 25.0 83 2.2 CALM 0 0 0 0 1009.0 - 0.0
09/10:30pm 28.4 35.0 25.2 83 2.2 CALM 0 4 0 2 1009.1 - 0.0
09/10:00pm 28.4 34.1 25.0 82 2.4 W 4 6 2 3 1008.8 - 0.0
09/09:30pm 28.5 33.4 24.7 80 2.7 WNW 7 7 4 4 1008.6 - 0.0
09/09:00pm 28.7 33.6 24.7 79 2.8 W 7 9 4 5 1008.4 1008.4 0.0
09/08:30pm 29.0 33.6 24.8 78 2.9 WNW 9 15 5 8 1008.2 - 0.0
09/08:00pm 29.2 33.8 24.7 77 3.1 WNW 9 17 5 9 1007.7 - 0.0
09/07:30pm 29.3 33.0 24.6 76 3.3 WNW 13 19 7 10 1007.3 - 0.0
09/07:00pm 29.6 33.3 24.5 74 3.6 WNW 13 20 7 11 1007.1 - 0.0
09/06:30pm 30.3 34.1 24.7 72 3.9 WNW 13 20 7 11 1006.5 - 0.0
09/06:00pm 30.5 33.8 25.1 73 3.8 WNW 17 24 9 13 1006.3 1006.3 0.0
09/05:30pm 30.7 33.6 25.1 72 3.9 NW 19 26 10 14 1006.2 - 0.0
09/05:00pm 31.2 34.2 25.3 71 4.2 NW 19 26 10 14 1005.9 - 0.0
09/04:30pm 31.3 34.7 25.2 70 4.3 NNW 17 24 9 13 1005.6 - 0.0
09/04:00pm 31.8 35.6 25.9 71 4.2 NW 17 24 9 13 1005.5 - 0.0
09/03:30pm 30.9 34.3 25.9 74 3.6 NNW 19 24 10 13 1005.7 - 0.0
09/03:00pm 31.1 34.3 25.9 74 3.7 NNW 20 26 11 14 1005.9 1005.9 0.0
09/02:30pm 31.2 34.5 26.0 74 3.7 NNW 20 26 11 14 1006.2 - 0.0
09/02:00pm 31.3 34.2 25.4 71 4.2 NNW 20 26 11 14 1006.7 - 0.0
09/01:30pm 31.1 33.9 25.0 70 4.3 NNW 19 22 10 12 1007.3 - 0.0
09/01:00pm 31.0 33.9 25.1 71 4.2 NNW 19 24 10 13 1007.9 - 0.0
09/12:30pm 31.1 33.9 25.0 70 4.3 NNW 19 22 10 12 1008.5 - 0.0
09/12:00pm 31.3 34.8 25.4 71 4.2 NNW 17 22 9 12 1009.2 1009.2 0.0

Other Formats:

Comma delimited format used in spreadsheet applications
http://www.bom.gov.au/fwo/IDQ60801/IDQ60801.94174.axf

JavaScript Object Notation format (JSON) in row-major order
http://www.bom.gov.au/fwo/IDQ60801/IDQ60801.94174.json